Time;durP1;ratioP1;P1;durP2;ratioP2;P2;SDS_P1;SDS_P2;PMS_P1;PMS_P2;Temp;Humidity;BMP_temperature;BMP_pressure;BME280_temperature;BME280_humidity;BME280_pressure;Samples;Min_cycle;Max_cycle;Signal;HPM_P1;HPM_P2
2022/02/22 07:02:10;;;;;;;63.40;8.00;;;;;;;;;;5056179;23;20037;-88
2022/02/22 07:04:38;;;;;;;46.03;8.32;;;;;;;;;;4895437;29;20508;-87
2022/02/22 07:07:06;;;;;;;61.00;8.32;;;;;;;;;;4893093;29;20076;-84
2022/02/22 07:09:33;;;;;;;52.40;7.65;;;;;;;;;;4890591;29;20497;-86
2022/02/22 07:12:01;;;;;;;43.97;8.00;;;;;;;;;;4894163;29;20049;-87
2022/02/22 07:14:27;;;;;;;50.03;7.72;;;;;;;;;;4893732;29;20119;-84
2022/02/22 07:16:55;;;;;;;54.88;8.13;;;;;;;;;;4878087;29;20049;-87
2022/02/22 07:19:22;;;;;;;53.17;8.63;;;;;;;;;;5059419;23;20053;-86
2022/02/22 07:21:49;;;;;;;59.25;8.32;;;;;;;;;;4899029;29;20112;-88
2022/02/22 07:24:15;;;;;;;55.67;7.78;;;;;;;;;;4875859;29;20077;-87
2022/02/22 07:26:42;;;;;;;53.42;7.93;;;;;;;;;;4882770;29;20097;-87
2022/02/22 07:29:08;;;;;;;46.50;7.75;;;;;;;;;;4896502;29;20052;-86
2022/02/22 07:31:35;;;;;;;55.45;7.15;;;;;;;;;;4896345;29;20052;-85
2022/02/22 07:34:02;;;;;;;52.33;8.43;;;;;;;;;;4895229;29;20485;-86
2022/02/22 07:36:29;;;;;;;49.58;6.97;;;;;;;;;;4893995;29;20128;-87
2022/02/22 07:38:55;;;;;;;62.72;7.22;;;;;;;;;;4896118;29;20056;-85
2022/02/22 07:41:22;;;;;;;54.33;6.75;;;;;;;;;;4896757;29;20056;-86
2022/02/22 07:43:50;;;;;;;47.15;6.47;;;;;;;;;;4896536;29;20059;-86
2022/02/22 07:46:18;;;;;;;54.63;6.75;;;;;;;;;;4898767;29;20047;-86
2022/02/22 07:48:47;;;;;;;47.75;7.13;;;;;;;;;;4896701;29;20402;-86
2022/02/22 07:51:18;;;;;;;49.47;7.30;;;;;;;;;;4891442;29;20192;-87
2022/02/22 07:53:46;;;;;;;60.63;6.78;;;;;;;;;;4881154;29;20068;-86
2022/02/22 07:56:14;;;;;;;45.40;7.38;;;;;;;;;;4881866;29;20101;-87
2022/02/22 07:58:41;;;;;;;59.50;8.40;;;;;;;;;;4896635;29;20510;-87
2022/02/22 08:01:11;;;;;;;44.65;7.20;;;;;;;;;;4897368;29;20056;-87
2022/02/22 08:03:43;;;;;;;62.10;6.40;;;;;;;;;;4896476;29;20086;-86
2022/02/22 08:06:13;;;;;;;61.75;7.60;;;;;;;;;;4877463;29;20076;-86
2022/02/22 08:08:40;;;;;;;63.38;7.97;;;;;;;;;;4882220;29;20418;-86
2022/02/22 08:11:07;;;;;;;55.53;7.57;;;;;;;;;;4899406;29;20100;-85
2022/02/22 08:13:34;;;;;;;58.95;7.68;;;;;;;;;;4896371;29;20049;-86
2022/02/22 08:16:01;;;;;;;67.95;8.25;;;;;;;;;;4897586;29;20547;-86
2022/02/22 08:18:28;;;;;;;54.00;8.35;;;;;;;;;;4894127;29;20426;-86
2022/02/22 08:20:55;;;;;;;73.18;8.05;;;;;;;;;;4878688;29;20132;-86
2022/02/22 08:23:25;;;;;;;56.50;7.88;;;;;;;;;;4880838;29;20495;-86
2022/02/22 08:25:52;;;;;;;74.43;8.18;;;;;;;;;;4896353;29;20048;-85
2022/02/22 08:28:19;;;;;;;49.95;7.13;;;;;;;;;;4895420;29;20064;-86
2022/02/22 08:30:46;;;;;;;60.95;7.43;;;;;;;;;;4896275;29;20052;-85
2022/02/22 08:33:12;;;;;;;60.75;6.95;;;;;;;;;;4875774;29;20049;-85
2022/02/22 08:35:40;;;;;;;60.83;7.68;;;;;;;;;;4898767;29;20059;-85
2022/02/22 08:38:06;;;;;;;61.75;7.97;;;;;;;;;;4897413;29;20052;-84
2022/02/22 08:40:34;;;;;;;61.33;8.07;;;;;;;;;;4896484;29;20578;-85
2022/02/22 08:43:00;;;;;;;60.45;8.00;;;;;;;;;;4895771;29;20056;-85
2022/02/22 08:45:27;;;;;;;54.78;7.65;;;;;;;;;;4895388;29;20111;-84
2022/02/22 08:47:54;;;;;;;51.05;7.10;;;;;;;;;;4895628;29;20052;-84
2022/02/22 08:50:22;;;;;;;64.03;8.07;;;;;;;;;;4896930;29;20135;-84
2022/02/22 08:52:49;;;;;;;53.83;7.53;;;;;;;;;;4895834;29;20075;-85
2022/02/22 08:55:16;;;;;;;60.88;8.25;;;;;;;;;;4896850;29;20040;-83
2022/02/22 08:57:43;;;;;;;65.15;8.45;;;;;;;;;;4900648;29;20496;-84
2022/02/22 09:00:10;;;;;;;48.22;7.05;;;;;;;;;;4895576;29;20048;-85
2022/02/22 09:02:39;;;;;;;54.37;8.27;;;;;;;;;;4909952;29;20062;-84
2022/02/22 09:05:08;;;;;;;56.65;6.65;;;;;;;;;;4898985;29;20068;-84
2022/02/22 09:07:35;;;;;;;53.72;6.65;;;;;;;;;;4899308;29;20569;-84
2022/02/22 09:10:03;;;;;;;55.72;6.20;;;;;;;;;;4898348;29;20115;-84
2022/02/22 09:12:32;;;;;;;61.10;8.70;;;;;;;;;;4889084;29;20105;-85
2022/02/22 09:15:02;;;;;;;56.03;7.68;;;;;;;;;;4893282;29;20464;-82
2022/02/22 09:17:29;;;;;;;52.58;6.70;;;;;;;;;;4893785;29;20132;-85
2022/02/22 09:19:57;;;;;;;58.83;7.30;;;;;;;;;;4892426;29;20060;-86
2022/02/22 09:22:24;;;;;;;67.55;7.90;;;;;;;;;;4876703;29;20048;-85
2022/02/22 09:24:51;;;;;;;59.80;7.97;;;;;;;;;;4873011;29;20053;-85
2022/02/22 09:27:18;;;;;;;64.97;6.95;;;;;;;;;;4874716;29;20501;-85
2022/02/22 09:29:46;;;;;;;58.10;8.43;;;;;;;;;;4874223;29;20112;-86
2022/02/22 09:32:13;;;;;;;67.80;8.57;;;;;;;;;;4859322;29;20562;-85
2022/02/22 09:34:40;;;;;;;50.63;7.88;;;;;;;;;;4874426;29;20528;-85
2022/02/22 09:37:09;;;;;;;61.30;8.13;;;;;;;;;;4870424;29;20141;-83
2022/02/22 09:39:38;;;;;;;65.93;7.88;;;;;;;;;;4871558;29;20403;-84
2022/02/22 09:42:09;;;;;;;54.13;6.72;;;;;;;;;;4853206;29;20411;-84
2022/02/22 09:44:37;;;;;;;63.40;7.40;;;;;;;;;;4874496;29;20089;-85
2022/02/22 09:47:05;;;;;;;47.40;6.70;;;;;;;;;;4869865;29;20053;-84
2022/02/22 09:49:33;;;;;;;59.45;8.07;;;;;;;;;;4872992;29;20519;-85
2022/02/22 09:52:00;;;;;;;50.58;9.00;;;;;;;;;;4873568;29;20052;-86
2022/02/22 09:54:27;;;;;;;64.45;8.23;;;;;;;;;;4870242;29;20484;-86
2022/02/22 09:56:57;;;;;;;63.47;9.57;;;;;;;;;;4872828;29;20143;-85
2022/02/22 09:59:25;;;;;;;64.43;8.85;;;;;;;;;;4876455;29;20057;-86
2022/02/22 10:01:54;;;;;;;66.72;9.55;;;;;;;;;;4857404;29;20124;-84
2022/02/22 10:04:22;;;;;;;46.53;7.75;;;;;;;;;;4869135;29;20048;-85
2022/02/22 10:06:50;;;;;;;64.57;8.02;;;;;;;;;;4868879;29;20175;-85
2022/02/22 10:09:18;;;;;;;55.00;8.55;;;;;;;;;;4873021;29;20044;-85
2022/02/22 10:11:51;;;;;;;65.88;6.70;;;;;;;;;;4873497;29;20068;-83
2022/02/22 10:14:28;;;;;;;53.63;6.10;;;;;;;;;;4873948;29;20077;-83
2022/02/22 10:16:57;;;;;;;57.00;7.20;;;;;;;;;;4860719;29;20120;-85
2022/02/22 10:19:25;;;;;;;54.95;7.18;;;;;;;;;;4882299;29;20064;-86
2022/02/22 10:21:57;;;;;;;64.00;7.82;;;;;;;;;;4891964;29;20053;-84
2022/02/22 10:24:29;;;;;;;48.78;6.78;;;;;;;;;;4890790;29;20060;-85
2022/02/22 10:27:01;;;;;;;49.35;6.82;;;;;;;;;;4891830;29;20136;-85
2022/02/22 10:29:30;;;;;;;44.22;7.03;;;;;;;;;;4892106;29;20056;-87
2022/02/22 10:31:57;;;;;;;59.83;8.20;;;;;;;;;;4892079;29;20065;-86
2022/02/22 10:34:31;;;;;;;42.95;6.82;;;;;;;;;;4875769;29;20056;-86
2022/02/22 10:36:59;;;;;;;54.33;6.55;;;;;;;;;;4883567;29;20103;-87
2022/02/22 10:39:27;;;;;;;48.67;7.10;;;;;;;;;;4875797;29;20099;-85
2022/02/22 10:41:56;;;;;;;54.47;6.87;;;;;;;;;;4890013;29;20180;-87
2022/02/22 10:44:33;;;;;;;50.33;6.60;;;;;;;;;;4890574;29;20285;-85
2022/02/22 10:47:06;;;;;;;44.55;5.93;;;;;;;;;;4891481;29;20407;-87
2022/02/22 10:49:35;;;;;;;45.03;6.55;;;;;;;;;;4890892;29;20060;-86
2022/02/22 10:52:05;;;;;;;;;;;;;;;;;;4892210;29;20044;-87
2022/02/22 10:54:32;;;;;;;56.42;7.45;;;;;;;;;;4891306;29;19930;-86
2022/02/22 10:57:02;;;;;;;49.47;6.93;;;;;;;;;;4891082;29;20132;-86
2022/02/22 10:59:31;;;;;;;59.88;7.82;;;;;;;;;;4892058;29;20509;-86
2022/02/22 11:01:59;;;;;;;60.28;6.93;;;;;;;;;;4890419;29;20135;-85
2022/02/22 11:04:31;;;;;;;61.75;7.97;;;;;;;;;;4890299;29;20044;-85
2022/02/22 11:06:58;;;;;;;56.80;7.53;;;;;;;;;;4891520;29;20048;-87
2022/02/22 11:09:26;;;;;;;64.18;7.18;;;;;;;;;;4890042;29;20045;-87
2022/02/22 11:11:58;;;;;;;57.63;7.00;;;;;;;;;;4890816;29;20080;-87
2022/02/22 11:14:29;;;;;;;57.78;7.25;;;;;;;;;;4875235;29;20055;-87
2022/02/22 11:16:59;;;;;;;51.30;7.53;;;;;;;;;;4889825;29;20517;-87
2022/02/22 11:19:33;;;;;;;53.33;7.07;;;;;;;;;;4891034;29;20055;-87
2022/02/22 11:22:19;;;;;;;49.58;6.45;;;;;;;;;;4891387;29;20051;-87
2022/02/22 11:24:46;;;;;;;57.88;6.88;;;;;;;;;;4891279;29;20056;-86
2022/02/22 11:27:27;;;;;;;46.63;7.30;;;;;;;;;;4889713;29;20044;-87
2022/02/22 11:30:07;;;;;;;43.83;6.47;;;;;;;;;;4891051;29;20139;-86
2022/02/22 11:32:40;;;;;;;57.33;7.65;;;;;;;;;;4890693;29;20052;-87
2022/02/22 11:35:16;;;;;;;48.38;7.15;;;;;;;;;;4890516;29;20422;-87
2022/02/22 11:37:46;;;;;;;50.08;7.68;;;;;;;;;;4888719;29;20052;-87
2022/02/22 11:40:27;;;;;;;60.42;9.43;;;;;;;;;;4869090;29;20041;-87
2022/02/22 11:43:13;;;;;;;43.22;7.05;;;;;;;;;;4886836;29;20140;-88
2022/02/22 11:46:08;;;;;;;48.13;6.72;;;;;;;;;;4889616;29;20063;-88
2022/02/22 11:48:39;;;;;;;38.28;5.93;;;;;;;;;;4891082;29;20510;-87
2022/02/22 11:51:15;;;;;;;42.85;6.45;;;;;;;;;;4890330;29;20537;-86
2022/02/22 11:53:51;;;;;;;50.10;7.05;;;;;;;;;;4887906;29;20425;-88
2022/02/22 11:56:21;;;;;;;49.92;6.53;;;;;;;;;;4890879;29;20112;-88
2022/02/22 11:58:47;;;;;;;50.92;6.05;;;;;;;;;;4876443;29;20103;-89
2022/02/22 12:01:20;;;;;;;36.28;5.53;;;;;;;;;;4875547;29;20446;-89
2022/02/22 12:03:49;;;;;;;38.65;6.60;;;;;;;;;;4878252;29;20147;-90
2022/02/22 12:06:19;;;;;;;46.42;6.32;;;;;;;;;;4889898;29;20418;-89
2022/02/22 12:08:51;;;;;;;45.25;6.05;;;;;;;;;;4874407;29;20136;-90
2022/02/22 12:11:19;;;;;;;56.85;7.15;;;;;;;;;;4890076;29;20139;-88
2022/02/22 12:13:57;;;;;;;46.38;6.00;;;;;;;;;;4877752;29;20076;-88
2022/02/22 12:16:28;;;;;;;49.95;7.88;;;;;;;;;;4889915;29;20537;-89
2022/02/22 12:19:01;;;;;;;56.30;7.78;;;;;;;;;;4884381;29;20556;-88
2022/02/22 12:21:28;;;;;;;45.05;6.68;;;;;;;;;;4890148;29;20529;-87
2022/02/22 12:23:55;;;;;;;49.80;6.25;;;;;;;;;;4890260;29;20073;-87
2022/02/22 12:26:24;;;;;;;51.45;6.13;;;;;;;;;;4888461;29;20148;-87
2022/02/22 12:29:03;;;;;;;39.22;6.10;;;;;;;;;;4876624;29;20060;-87
2022/02/22 12:31:36;;;;;;;47.22;5.75;;;;;;;;;;4893314;29;20047;-88
2022/02/22 12:34:12;;;;;;;40.30;5.75;;;;;;;;;;4894283;29;20052;-86
2022/02/22 12:36:41;;;;;;;47.75;7.70;;;;;;;;;;4894188;29;20084;-87
2022/02/22 12:39:12;;;;;;;41.45;6.43;;;;;;;;;;4892459;29;20054;-86
2022/02/22 12:41:40;;;;;;;38.22;6.13;;;;;;;;;;4879344;29;20471;-86
2022/02/22 12:44:10;;;;;;;36.00;7.88;;;;;;;;;;4891816;29;20092;-86
2022/02/22 12:46:38;;;;;;;50.08;6.95;;;;;;;;;;4894030;29;20096;-87
2022/02/22 12:49:05;;;;;;;53.97;6.72;;;;;;;;;;4892421;29;20108;-84
2022/02/22 12:51:33;;;;;;;40.60;6.03;;;;;;;;;;4893886;29;20531;-86
2022/02/22 12:54:20;;;;;;;41.88;6.65;;;;;;;;;;4893820;29;20493;-86
2022/02/22 12:56:56;;;;;;;57.33;7.47;;;;;;;;;;4891884;29;20044;-86
2022/02/22 12:59:31;;;;;;;43.30;7.25;;;;;;;;;;4893767;29;20058;-86
2022/02/22 13:02:00;;;;;;;47.78;6.97;;;;;;;;;;4893284;29;20548;-86
2022/02/22 13:04:35;;;;;;;45.05;7.38;;;;;;;;;;4879276;29;20123;-86
2022/02/22 13:07:10;;;;;;;41.95;6.30;;;;;;;;;;4893388;29;20048;-86
2022/02/22 13:09:42;;;;;;;47.10;6.75;;;;;;;;;;4887060;29;20537;-85
2022/02/22 13:12:10;;;;;;;36.08;5.45;;;;;;;;;;4886567;29;20060;-85
2022/02/22 13:14:47;;;;;;;37.33;5.78;;;;;;;;;;4893101;29;20365;-86
2022/02/22 13:17:15;;;;;;;30.40;4.90;;;;;;;;;;4892362;29;20687;-86
2022/02/22 13:20:00;;;;;;;43.17;6.10;;;;;;;;;;4883625;29;20053;-87
2022/02/22 13:22:32;;;;;;;51.77;7.03;;;;;;;;;;4882527;29;20128;-86
2022/02/22 13:25:02;;;;;;;42.90;6.68;;;;;;;;;;4879779;29;20053;-86
2022/02/22 13:27:31;;;;;;;45.78;6.40;;;;;;;;;;4871991;29;20056;-85
2022/02/22 13:30:02;;;;;;;36.63;6.05;;;;;;;;;;4872694;29;20048;-86
2022/02/22 13:32:43;;;;;;;46.75;7.00;;;;;;;;;;4875129;29;20108;-85
2022/02/22 13:35:23;;;;;;;35.65;6.18;;;;;;;;;;4871463;29;20546;-86
2022/02/22 13:38:18;;;;;;;40.75;6.07;;;;;;;;;;4873965;29;20045;-86
2022/02/22 13:40:44;;;;;;;45.78;6.65;;;;;;;;;;4872233;29;20124;-86
2022/02/22 13:43:13;;;;;;;40.17;5.80;;;;;;;;;;4872853;29;20113;-85
2022/02/22 13:45:42;;;;;;;47.63;6.35;;;;;;;;;;4879413;29;20132;-85
2022/02/22 13:48:12;;;;;;;44.13;5.55;;;;;;;;;;4869202;29;20057;-86
2022/02/22 13:50:39;;;;;;;43.83;6.40;;;;;;;;;;4874358;29;20117;-85
2022/02/22 13:53:14;;;;;;;44.28;6.00;;;;;;;;;;4881183;29;20080;-84
2022/02/22 13:55:57;;;;;;;47.58;6.15;;;;;;;;;;4880867;29;20052;-86
2022/02/22 13:58:27;;;;;;;41.65;6.43;;;;;;;;;;4874579;29;20488;-86
2022/02/22 14:00:57;;;;;;;47.13;6.43;;;;;;;;;;4871471;29;20057;-85
2022/02/22 14:03:24;;;;;;;38.78;6.03;;;;;;;;;;4878990;29;20049;-85
2022/02/22 14:05:51;;;;;;;42.78;6.13;;;;;;;;;;4887317;29;20057;-85
2022/02/22 14:08:18;;;;;;;32.78;5.35;;;;;;;;;;4857459;29;20061;-85
2022/02/22 14:10:47;;;;;;;36.25;6.25;;;;;;;;;;4857397;29;20061;-85
2022/02/22 14:13:16;;;;;;;44.40;6.05;;;;;;;;;;4856946;29;20634;-85
2022/02/22 14:15:57;;;;;;;40.60;5.90;;;;;;;;;;4858648;29;20057;-85
2022/02/22 14:18:23;;;;;;;44.72;6.97;;;;;;;;;;4870576;29;20057;-85
2022/02/22 14:20:50;;;;;;;40.33;6.10;;;;;;;;;;4872933;29;20057;-86
2022/02/22 14:23:17;;;;;;;56.80;6.95;;;;;;;;;;4892490;29;20088;-87
2022/02/22 14:25:44;;;;;;;42.88;6.30;;;;;;;;;;4891916;29;20533;-85
2022/02/22 14:28:11;;;;;;;46.05;7.40;;;;;;;;;;4891457;29;20049;-86
2022/02/22 14:30:38;;;;;;;43.45;6.20;;;;;;;;;;4891988;29;20052;-88
2022/02/22 14:33:05;;;;;;;45.38;6.35;;;;;;;;;;4891537;29;20090;-84
2022/02/22 14:35:32;;;;;;;40.60;6.50;;;;;;;;;;4892735;29;20170;-87
2022/02/22 14:37:58;;;;;;;37.42;6.00;;;;;;;;;;4892506;29;20048;-88
2022/02/22 14:40:26;;;;;;;43.78;5.93;;;;;;;;;;4891383;29;20056;-86
2022/02/22 14:42:52;;;;;;;46.22;6.70;;;;;;;;;;4891414;29;20060;-86
2022/02/22 14:45:19;;;;;;;61.03;6.75;;;;;;;;;;4891184;29;20467;-88
2022/02/22 14:47:46;;;;;;;51.72;6.75;;;;;;;;;;4892950;29;20139;-88
2022/02/22 14:50:13;;;;;;;51.83;6.97;;;;;;;;;;4891182;29;20048;-88
2022/02/22 14:52:40;;;;;;;44.38;6.57;;;;;;;;;;4891286;29;20048;-87
2022/02/22 14:55:12;;;;;;;49.00;7.10;;;;;;;;;;4890511;29;20576;-86
2022/02/22 14:57:48;;;;;;;53.67;7.82;;;;;;;;;;4891734;29;20147;-87
2022/02/22 15:00:16;;;;;;;57.25;6.47;;;;;;;;;;4891036;29;20059;-88
2022/02/22 15:02:43;;;;;;;62.95;7.15;;;;;;;;;;4892995;29;20134;-90
2022/02/22 15:05:09;;;;;;;54.85;6.70;;;;;;;;;;4892824;29;20076;-90
2022/02/22 15:07:36;;;;;;;50.15;7.13;;;;;;;;;;4878185;29;20103;-90
2022/02/22 15:10:04;;;;;;;67.75;7.50;;;;;;;;;;4892298;29;20057;-89
2022/02/22 15:12:30;;;;;;;60.60;8.57;;;;;;;;;;4892323;29;20068;-85
2022/02/22 15:14:57;;;;;;;61.63;7.63;;;;;;;;;;4888977;29;20052;-88
2022/02/22 15:17:24;;;;;;;61.47;7.78;;;;;;;;;;4894186;29;20075;-87
2022/02/22 15:19:51;;;;;;;63.95;7.18;;;;;;;;;;4885113;29;20060;-86
2022/02/22 15:22:18;;;;;;;61.25;8.80;;;;;;;;;;4867329;29;20101;-86
2022/02/22 15:24:46;;;;;;;60.45;7.65;;;;;;;;;;4880698;29;20088;-88
2022/02/22 15:27:13;;;;;;;56.55;7.63;;;;;;;;;;4877981;29;20108;-89
2022/02/22 15:29:41;;;;;;;48.72;6.90;;;;;;;;;;4881155;29;20798;-88
2022/02/22 15:32:12;;;;;;;54.05;7.13;;;;;;;;;;4863875;29;20060;-89
2022/02/22 15:35:02;;;;;;;51.58;7.93;;;;;;;;;;4886042;29;20111;-87
2022/02/22 15:37:29;;;;;;;52.38;6.70;;;;;;;;;;4868101;29;20480;-88
2022/02/22 15:39:56;;;;;;;40.35;6.30;;;;;;;;;;4879056;29;20388;-89
2022/02/22 15:42:22;;;;;;;31.23;5.88;;;;;;;;;;4884718;29;20053;-87
2022/02/22 15:44:49;;;;;;;33.80;5.32;;;;;;;;;;4862151;29;20079;-88
2022/02/22 15:47:16;;;;;;;32.33;4.97;;;;;;;;;;4882959;29;20048;-85
2022/02/22 15:49:43;;;;;;;40.30;6.15;;;;;;;;;;4882287;29;20469;-86
2022/02/22 15:52:10;;;;;;;51.45;5.90;;;;;;;;;;4885438;29;20044;-85
2022/02/22 15:54:37;;;;;;;35.05;5.28;;;;;;;;;;4871192;29;20133;-86
2022/02/22 15:57:05;;;;;;;27.35;4.78;;;;;;;;;;4875498;29;20056;-85
2022/02/22 15:59:34;;;;;;;37.38;5.53;;;;;;;;;;4891148;29;20072;-86
2022/02/22 16:02:03;;;;;;;36.40;5.05;;;;;;;;;;4877605;29;20052;-86
2022/02/22 16:04:30;;;;;;;45.17;5.65;;;;;;;;;;4865941;29;20069;-86
2022/02/22 16:06:57;;;;;;;37.72;5.63;;;;;;;;;;4870397;29;20052;-86
2022/02/22 16:09:23;;;;;;;43.00;5.90;;;;;;;;;;4883322;29;20558;-87
2022/02/22 16:11:55;;;;;;;40.60;5.07;;;;;;;;;;4857934;29;20582;-87
2022/02/22 16:14:21;;;;;;;37.22;5.10;;;;;;;;;;4885201;29;20052;-86
2022/02/22 16:16:48;;;;;;;36.88;5.15;;;;;;;;;;4881457;29;20049;-87
2022/02/22 16:19:15;;;;;;;29.52;4.68;;;;;;;;;;4875189;29;20060;-90
2022/02/22 16:21:44;;;;;;;44.40;5.45;;;;;;;;;;4874618;29;20371;-89
2022/02/22 16:24:11;;;;;;;28.90;4.55;;;;;;;;;;4889787;29;20160;-88
2022/02/22 16:26:40;;;;;;;34.97;5.88;;;;;;;;;;4891920;29;20085;-88
2022/02/22 16:29:11;;;;;;;36.97;3.90;;;;;;;;;;4891930;29;20544;-89
2022/02/22 16:31:37;;;;;;;36.25;4.63;;;;;;;;;;4887579;29;20071;-88
2022/02/22 16:34:04;;;;;;;41.78;4.65;;;;;;;;;;4896138;29;20112;-84
2022/02/22 16:36:31;;;;;;;34.80;4.68;;;;;;;;;;4881441;29;20415;-86
2022/02/22 16:38:58;;;;;;;27.95;4.60;;;;;;;;;;4890734;29;20104;-86
2022/02/22 16:41:24;;;;;;;42.90;5.45;;;;;;;;;;4891275;29;20057;-89
2022/02/22 16:43:51;;;;;;;33.95;5.13;;;;;;;;;;4893276;29;20448;-87
2022/02/22 16:46:18;;;;;;;41.13;5.15;;;;;;;;;;4892188;29;20041;-88
2022/02/22 16:48:45;;;;;;;38.17;5.25;;;;;;;;;;4876638;29;20698;-87
2022/02/22 16:51:12;;;;;;;49.53;6.20;;;;;;;;;;4890903;29;20072;-86
2022/02/22 16:53:38;;;;;;;48.72;5.93;;;;;;;;;;4878622;29;20470;-85
2022/02/22 16:56:05;;;;;;;32.95;4.88;;;;;;;;;;4895427;29;20104;-88
2022/02/22 16:58:32;;;;;;;31.05;5.32;;;;;;;;;;4877061;29;20112;-84
2022/02/22 17:00:59;;;;;;;39.85;5.72;;;;;;;;;;4892778;29;20507;-85
2022/02/22 17:03:25;;;;;;;35.58;5.57;;;;;;;;;;4897460;29;20048;-85
2022/02/22 17:05:57;;;;;;;42.88;5.75;;;;;;;;;;4892833;29;20112;-83
2022/02/22 17:08:26;;;;;;;38.58;5.28;;;;;;;;;;4893050;29;20088;-83
2022/02/22 17:10:54;;;;;;;44.25;6.10;;;;;;;;;;4888202;29;20411;-83
2022/02/22 17:13:20;;;;;;;38.67;5.95;;;;;;;;;;4890505;29;20797;-84
2022/02/22 17:15:47;;;;;;;37.03;5.95;;;;;;;;;;4892920;29;20410;-83
2022/02/22 17:18:16;;;;;;;40.90;6.40;;;;;;;;;;4883557;29;20541;-83
2022/02/22 17:20:47;;;;;;;41.58;6.13;;;;;;;;;;4896745;29;20083;-84
2022/02/22 17:23:15;;;;;;;41.60;5.32;;;;;;;;;;4879346;29;20151;-84
2022/02/22 17:25:42;;;;;;;35.85;5.30;;;;;;;;;;4897291;29;20083;-84
2022/02/22 17:28:08;;;;;;;43.00;5.78;;;;;;;;;;4897794;29;20096;-85
2022/02/22 17:30:36;;;;;;;40.63;5.82;;;;;;;;;;4895166;29;20051;-84
2022/02/22 17:33:02;;;;;;;37.90;6.05;;;;;;;;;;4898383;29;20052;-84
2022/02/22 17:35:29;;;;;;;37.17;6.60;;;;;;;;;;4897666;29;20060;-84
2022/02/22 17:37:57;;;;;;;26.38;5.28;;;;;;;;;;4882259;29;20079;-84
2022/02/22 17:40:24;;;;;;;45.67;6.72;;;;;;;;;;4894511;29;20048;-85
2022/02/22 17:42:52;;;;;;;36.63;5.15;;;;;;;;;;4894363;29;20942;-84
2022/02/22 17:45:19;;;;;;;48.30;6.90;;;;;;;;;;4874689;29;20076;-85
2022/02/22 17:47:45;;;;;;;39.33;5.85;;;;;;;;;;4897224;29;20048;-86
2022/02/22 17:50:12;;;;;;;38.58;5.38;;;;;;;;;;4882696;29;20155;-84
2022/02/22 17:52:39;;;;;;;39.75;4.90;;;;;;;;;;4897857;29;20044;-86
2022/02/22 17:55:06;;;;;;;46.83;5.97;;;;;;;;;;4893412;29;20155;-84
2022/02/22 17:57:33;;;;;;;42.00;4.70;;;;;;;;;;4893806;29;20325;-84
2022/02/22 18:00:00;;;;;;;43.75;5.82;;;;;;;;;;4893060;29;20112;-85
2022/02/22 18:02:28;;;;;;;47.65;5.63;;;;;;;;;;4894091;29;20068;-86
2022/02/22 18:04:56;;;;;;;47.83;6.53;;;;;;;;;;4896114;29;20088;-85
2022/02/22 18:07:23;;;;;;;35.72;4.63;;;;;;;;;;4897509;29;20044;-86
2022/02/22 18:09:49;;;;;;;36.95;5.68;;;;;;;;;;4895180;29;20080;-86
2022/02/22 18:12:16;;;;;;;51.88;5.68;;;;;;;;;;4892647;29;20462;-87
2022/02/22 18:14:43;;;;;;;41.42;5.50;;;;;;;;;;4895974;29;20048;-86
2022/02/22 18:17:10;;;;;;;42.38;5.97;;;;;;;;;;4892209;29;20099;-87
2022/02/22 18:19:37;;;;;;;48.35;6.25;;;;;;;;;;4892344;29;20108;-88
2022/02/22 18:22:03;;;;;;;51.83;7.03;;;;;;;;;;4861053;29;20480;-84
2022/02/22 18:24:31;;;;;;;44.70;6.82;;;;;;;;;;4878545;29;20077;-87
2022/02/22 18:26:58;;;;;;;43.53;6.28;;;;;;;;;;4885920;29;20412;-88
2022/02/22 18:29:25;;;;;;;46.90;6.53;;;;;;;;;;4882835;29;20486;-87
2022/02/22 18:31:51;;;;;;;54.88;6.32;;;;;;;;;;4881729;29;20053;-87
2022/02/22 18:34:18;;;;;;;53.35;7.38;;;;;;;;;;4884729;29;20060;-88
2022/02/22 18:36:44;;;;;;;46.30;5.68;;;;;;;;;;4885223;29;20124;-89
2022/02/22 18:39:13;;;;;;;39.75;5.85;;;;;;;;;;4888573;29;20077;-88
2022/02/22 18:41:40;;;;;;;44.83;6.00;;;;;;;;;;4862543;29;20053;-87
2022/02/22 18:44:07;;;;;;;50.67;6.30;;;;;;;;;;4873999;29;20072;-88
2022/02/22 18:46:34;;;;;;;40.42;6.80;;;;;;;;;;4877955;29;20546;-86
2022/02/22 18:49:02;;;;;;;54.08;5.60;;;;;;;;;;4881465;29;20414;-88
2022/02/22 18:51:29;;;;;;;43.65;5.57;;;;;;;;;;4885968;29;20418;-89
2022/02/22 18:53:57;;;;;;;51.97;6.57;;;;;;;;;;4875985;29;20053;-89
2022/02/22 18:56:24;;;;;;;48.53;8.82;;;;;;;;;;4874049;29;20077;-87
2022/02/22 18:58:52;;;;;;;45.55;5.88;;;;;;;;;;4871952;29;20097;-86
2022/02/22 19:01:19;;;;;;;;;;;;;;;;;;4861218;29;20144;-86
2022/02/22 19:03:46;;;;;;;49.83;5.47;;;;;;;;;;4882388;29;19934;-86
2022/02/22 19:06:13;;;;;;;48.25;6.60;;;;;;;;;;4886000;29;20040;-89
2022/02/22 19:08:40;;;;;;;51.10;6.43;;;;;;;;;;4865231;29;20132;-86
2022/02/22 19:11:08;;;;;;;47.35;6.50;;;;;;;;;;4880072;29;20045;-91
2022/02/22 19:13:35;;;;;;;52.63;6.07;;;;;;;;;;4873524;29;20120;-89
2022/02/22 19:16:01;;;;;;;51.40;7.18;;;;;;;;;;4867681;29;20548;-86
2022/02/22 19:18:28;;;;;;;52.17;6.45;;;;;;;;;;4860542;29;20101;-88
2022/02/22 19:20:55;;;;;;;57.13;7.13;;;;;;;;;;4891297;29;20045;-88
2022/02/22 19:23:24;;;;;;;55.83;7.25;;;;;;;;;;4883482;29;20103;-88
2022/02/22 19:25:51;;;;;;;47.03;6.78;;;;;;;;;;4901630;29;20769;-88
2022/02/22 19:28:18;;;;;;;33.30;5.53;;;;;;;;;;4897997;29;20513;-88
2022/02/22 19:30:45;;;;;;;49.17;6.68;;;;;;;;;;4893723;29;20052;-88
2022/02/22 19:33:11;;;;;;;39.88;6.55;;;;;;;;;;4893593;29;20079;-87
2022/02/22 19:35:38;;;;;;;52.47;6.65;;;;;;;;;;4902397;29;20112;-88
2022/02/22 19:38:05;;;;;;;46.75;6.75;;;;;;;;;;4895455;29;20068;-87
2022/02/22 19:40:31;;;;;;;47.63;6.40;;;;;;;;;;4880081;29;20048;-88
2022/02/22 19:42:58;;;;;;;41.78;9.07;;;;;;;;;;4901749;29;20104;-88
2022/02/22 19:45:25;;;;;;;49.58;5.68;;;;;;;;;;4895752;29;20059;-89
2022/02/22 19:47:51;;;;;;;37.72;6.22;;;;;;;;;;4899035;29;20073;-89
2022/02/22 19:50:18;;;;;;;52.75;8.52;;;;;;;;;;4893579;29;20060;-87
2022/02/22 19:52:45;;;;;;;46.75;7.32;;;;;;;;;;4891502;29;20048;-87
2022/02/22 19:55:11;;;;;;;47.97;6.43;;;;;;;;;;4892679;29;20108;-86
2022/02/22 19:57:38;;;;;;;51.63;7.55;;;;;;;;;;4892044;29;20371;-88
2022/02/22 20:00:07;;;;;;;55.30;7.13;;;;;;;;;;4891061;29;20056;-86
2022/02/22 20:02:36;;;;;;;45.42;6.13;;;;;;;;;;4886591;29;20079;-86
2022/02/22 20:05:03;;;;;;;41.07;6.03;;;;;;;;;;4891977;29;20587;-86
2022/02/22 20:07:30;;;;;;;43.60;6.40;;;;;;;;;;4889208;29;20064;-85
2022/02/22 20:09:56;;;;;;;44.05;5.93;;;;;;;;;;4890958;29;20083;-86
2022/02/22 20:12:23;;;;;;;43.42;5.78;;;;;;;;;;4888312;29;20044;-86
2022/02/22 20:14:50;;;;;;;42.28;5.75;;;;;;;;;;4891345;29;20060;-85
2022/02/22 20:17:18;;;;;;;47.45;7.13;;;;;;;;;;4893393;29;20044;-85
2022/02/22 20:19:44;;;;;;;41.58;6.05;;;;;;;;;;4877325;29;20124;-87
2022/02/22 20:22:14;;;;;;;43.08;6.18;;;;;;;;;;4878300;29;20076;-86
2022/02/22 20:24:42;;;;;;;42.13;6.78;;;;;;;;;;4876230;29;20052;-89
2022/02/22 20:27:13;;;;;;;45.15;6.43;;;;;;;;;;4872446;29;20101;-86
2022/02/22 20:29:43;;;;;;;41.97;5.95;;;;;;;;;;4899149;29;20127;-88
2022/02/22 20:32:10;;;;;;;51.03;6.60;;;;;;;;;;4893003;29;20059;-87
2022/02/22 20:34:37;;;;;;;46.58;6.15;;;;;;;;;;4897286;29;20076;-87
2022/02/22 20:37:04;;;;;;;42.67;6.20;;;;;;;;;;4891518;29;20100;-86
2022/02/22 20:39:31;;;;;;;52.85;6.75;;;;;;;;;;4893479;29;20586;-86
2022/02/22 20:41:59;;;;;;;48.45;7.45;;;;;;;;;;4890696;29;20063;-87
2022/02/22 20:44:25;;;;;;;52.97;6.80;;;;;;;;;;4889911;29;20096;-88
2022/02/22 20:46:54;;;;;;;56.13;8.32;;;;;;;;;;4892624;29;20056;-87
2022/02/22 20:49:21;;;;;;;54.63;7.75;;;;;;;;;;4893570;29;20048;-86
2022/02/22 20:51:48;;;;;;;60.22;8.00;;;;;;;;;;4893527;29;20112;-88
2022/02/22 20:54:17;;;;;;;58.42;8.10;;;;;;;;;;4893815;29;20097;-87
2022/02/22 20:56:43;;;;;;;57.47;7.53;;;;;;;;;;4883035;29;20040;-86
2022/02/22 20:59:10;;;;;;;51.60;7.57;;;;;;;;;;4896636;29;20116;-87
2022/02/22 21:01:38;;;;;;;59.03;8.32;;;;;;;;;;4895016;29;20072;-87
2022/02/22 21:04:08;;;;;;;67.18;8.50;;;;;;;;;;4899554;29;20540;-86
2022/02/22 21:06:36;;;;;;;50.17;7.10;;;;;;;;;;4881143;29;20057;-86
2022/02/22 21:09:07;;;;;;;46.97;6.60;;;;;;;;;;4892262;29;20063;-87
2022/02/22 21:11:35;;;;;;;63.53;7.30;;;;;;;;;;4877302;29;20048;-87
2022/02/22 21:14:02;;;;;;;58.70;7.50;;;;;;;;;;4893645;29;20056;-86
2022/02/22 21:16:29;;;;;;;61.20;7.50;;;;;;;;;;4892653;29;20056;-86
2022/02/22 21:18:56;;;;;;;72.05;7.63;;;;;;;;;;4892947;29;20097;-86
2022/02/22 21:21:24;;;;;;;48.75;7.47;;;;;;;;;;4893871;29;20064;-87
2022/02/22 21:23:51;;;;;;;47.00;7.43;;;;;;;;;;4874719;29;20057;-86
2022/02/22 21:26:18;;;;;;;51.58;7.68;;;;;;;;;;4890809;29;20041;-87
2022/02/22 21:28:45;;;;;;;59.45;7.68;;;;;;;;;;4891203;29;20143;-88
2022/02/22 21:31:12;;;;;;;64.93;10.88;;;;;;;;;;4891752;29;20080;-86
2022/02/22 21:33:39;;;;;;;55.60;11.25;;;;;;;;;;4893371;29;20076;-87
2022/02/22 21:36:06;;;;;;;58.50;12.40;;;;;;;;;;4892822;29;20075;-87
2022/02/22 21:38:33;;;;;;;52.42;7.60;;;;;;;;;;4894240;29;20565;-88
2022/02/22 21:41:00;;;;;;;52.72;7.22;;;;;;;;;;4888457;29;20056;-87